Time;durP1;ratioP1;P1;durP2;ratioP2;P2;SDS_P1;SDS_P2;PMS_P1;PMS_P2;Temp;Humidity;BMP_temperature;BMP_pressure;BME280_temperature;BME280_humidity;BME280_pressure;Samples;Min_cycle;Max_cycle;Signal;HPM_P1;HPM_P2
2021/03/24 00:00:09;;;;;;;42.05;31.67;;;;;;;;;;5093265;28;20567;-75
2021/03/24 00:02:35;;;;;;;43.63;31.15;;;;;;;;;;5092531;28;20182;-74
2021/03/24 00:05:01;;;;;;;46.22;32.17;;;;;;;;;;5094003;28;20211;-74
2021/03/24 00:07:27;;;;;;;45.33;31.52;;;;;;;;;;5096366;28;20667;-72
2021/03/24 00:09:53;;;;;;;51.05;32.40;;;;;;;;;;5096684;28;20176;-74
2021/03/24 00:12:19;;;;;;;45.42;31.33;;;;;;;;;;5096433;28;20171;-74
2021/03/24 00:14:45;;;;;;;49.20;31.85;;;;;;;;;;5095955;28;20203;-75
2021/03/24 00:17:11;;;;;;;45.20;30.95;;;;;;;;;;5096304;28;20187;-74
2021/03/24 00:19:37;;;;;;;47.03;32.33;;;;;;;;;;5096587;28;20168;-73
2021/03/24 00:22:03;;;;;;;47.72;33.58;;;;;;;;;;5096338;28;20176;-74
2021/03/24 00:24:29;;;;;;;48.45;33.20;;;;;;;;;;5095817;28;20679;-72
2021/03/24 00:26:55;;;;;;;46.35;32.72;;;;;;;;;;5096176;28;20199;-73
2021/03/24 00:29:21;;;;;;;48.28;32.38;;;;;;;;;;5096397;28;20174;-73
2021/03/24 00:31:47;;;;;;;46.50;32.92;;;;;;;;;;5098043;28;20164;-76
2021/03/24 00:34:13;;;;;;;49.55;31.80;;;;;;;;;;5107630;28;20217;-75
2021/03/24 00:36:39;;;;;;;48.20;33.47;;;;;;;;;;5095877;28;20168;-74
2021/03/24 00:39:05;;;;;;;48.28;31.02;;;;;;;;;;5095442;28;20186;-75
2021/03/24 00:41:31;;;;;;;45.40;32.90;;;;;;;;;;5110795;28;20175;-76
2021/03/24 00:43:57;;;;;;;47.70;34.17;;;;;;;;;;5107593;28;20551;-73
2021/03/24 00:46:23;;;;;;;50.95;33.92;;;;;;;;;;5094248;28;20440;-74
2021/03/24 00:48:49;;;;;;;52.20;34.35;;;;;;;;;;5095397;28;20671;-73
2021/03/24 00:51:15;;;;;;;48.80;32.58;;;;;;;;;;5095765;28;20251;-72
2021/03/24 00:53:41;;;;;;;50.42;33.95;;;;;;;;;;5095545;28;20547;-71
2021/03/24 00:56:07;;;;;;;49.70;32.58;;;;;;;;;;5095657;28;20198;-72
2021/03/24 00:58:33;;;;;;;47.35;33.15;;;;;;;;;;5095539;28;20203;-73
2021/03/24 01:00:59;;;;;;;48.03;34.42;;;;;;;;;;5095155;28;20187;-73
2021/03/24 01:03:25;;;;;;;47.03;34.08;;;;;;;;;;5103253;28;20185;-71
2021/03/24 01:05:51;;;;;;;51.40;32.67;;;;;;;;;;5110517;28;20210;-75
2021/03/24 01:08:21;;;;;;;49.65;34.33;;;;;;;;;;5095353;28;20168;-72
2021/03/24 01:10:47;;;;;;;52.85;34.40;;;;;;;;;;5095107;28;20260;-74
2021/03/24 01:13:15;;;;;;;50.38;34.53;;;;;;;;;;5103436;28;20178;-76
2021/03/24 01:15:41;;;;;;;52.00;35.58;;;;;;;;;;5097509;28;20195;-73
2021/03/24 01:18:07;;;;;;;51.70;35.35;;;;;;;;;;5094509;28;20184;-76
2021/03/24 01:20:34;;;;;;;61.28;35.95;;;;;;;;;;5097475;28;20176;-76
2021/03/24 01:23:00;;;;;;;51.65;34.75;;;;;;;;;;5104459;28;20171;-76
2021/03/24 01:25:27;;;;;;;56.15;36.67;;;;;;;;;;5094801;28;20199;-74
2021/03/24 01:27:53;;;;;;;51.50;36.75;;;;;;;;;;5094332;28;20679;-76
2021/03/24 01:30:21;;;;;;;53.75;35.92;;;;;;;;;;5095611;28;20233;-75
2021/03/24 01:32:47;;;;;;;55.28;36.85;;;;;;;;;;5103387;28;20662;-75
2021/03/24 01:35:14;;;;;;;53.65;35.83;;;;;;;;;;5100141;28;20549;-74
2021/03/24 01:37:41;;;;;;;52.45;35.85;;;;;;;;;;5094853;28;20174;-76
2021/03/24 01:40:09;;;;;;;58.40;36.70;;;;;;;;;;5094347;28;20172;-75
2021/03/24 01:42:35;;;;;;;55.28;37.33;;;;;;;;;;5094440;28;20187;-75
2021/03/24 01:45:03;;;;;;;53.25;37.40;;;;;;;;;;5107966;28;20203;-74
2021/03/24 01:47:30;;;;;;;60.78;38.97;;;;;;;;;;5094259;28;20284;-74
2021/03/24 01:49:57;;;;;;;53.40;36.92;;;;;;;;;;5098181;28;20178;-73
2021/03/24 01:52:23;;;;;;;56.17;35.63;;;;;;;;;;5115089;28;20179;-72
2021/03/24 01:54:49;;;;;;;58.50;38.75;;;;;;;;;;5114819;28;20194;-74
2021/03/24 01:57:26;;;;;;;56.28;36.38;;;;;;;;;;5107792;28;20201;-73
2021/03/24 01:59:53;;;;;;;56.47;37.28;;;;;;;;;;5099970;28;20181;-72
2021/03/24 02:02:20;;;;;;;55.95;38.20;;;;;;;;;;5096406;28;20175;-71
2021/03/24 02:04:50;;;;;;;59.75;39.47;;;;;;;;;;5100103;28;20259;-74
2021/03/24 02:07:26;;;;;;;54.40;35.40;;;;;;;;;;5100041;28;20203;-73
2021/03/24 02:09:52;;;;;;;60.38;38.15;;;;;;;;;;5094367;28;20675;-72
2021/03/24 02:12:27;;;;;;;57.55;39.15;;;;;;;;;;5094183;28;20183;-75
2021/03/24 02:15:06;;;;;;;57.22;38.08;;;;;;;;;;5093841;28;20202;-76
2021/03/24 02:17:35;;;;;;;60.78;38.40;;;;;;;;;;5098125;28;20174;-74
2021/03/24 02:20:08;;;;;;;60.28;39.97;;;;;;;;;;5093334;28;20187;-76
2021/03/24 02:22:37;;;;;;;58.63;37.78;;;;;;;;;;5097894;28;20183;-76
2021/03/24 02:25:21;;;;;;;57.83;38.45;;;;;;;;;;5094086;28;20192;-73
2021/03/24 02:27:49;;;;;;;57.13;37.30;;;;;;;;;;5096119;28;20199;-74
2021/03/24 02:30:18;;;;;;;60.50;39.97;;;;;;;;;;5095857;28;20221;-74
2021/03/24 02:32:47;;;;;;;63.38;40.35;;;;;;;;;;5097805;28;20175;-71
2021/03/24 02:35:15;;;;;;;60.22;39.53;;;;;;;;;;5102894;28;20195;-74
2021/03/24 02:37:41;;;;;;;58.97;38.25;;;;;;;;;;5093804;28;20231;-73
2021/03/24 02:40:10;;;;;;;61.35;38.13;;;;;;;;;;5096171;28;20179;-74
2021/03/24 02:42:38;;;;;;;57.92;38.55;;;;;;;;;;5092333;28;20184;-73
2021/03/24 02:45:06;;;;;;;62.35;39.00;;;;;;;;;;5106811;28;20463;-72
2021/03/24 02:47:32;;;;;;;57.67;37.42;;;;;;;;;;5093441;28;20576;-76
2021/03/24 02:49:58;;;;;;;60.35;39.80;;;;;;;;;;5093293;28;20168;-72
2021/03/24 02:52:24;;;;;;;62.83;38.92;;;;;;;;;;5104714;28;20635;-74
2021/03/24 02:54:50;;;;;;;58.10;37.85;;;;;;;;;;5108826;28;20191;-73
2021/03/24 02:57:16;;;;;;;60.47;40.05;;;;;;;;;;5095133;28;20197;-74
2021/03/24 02:59:42;;;;;;;58.38;36.67;;;;;;;;;;5093200;28;20248;-75
2021/03/24 03:02:13;;;;;;;58.88;39.47;;;;;;;;;;5104464;28;20231;-73
2021/03/24 03:04:49;;;;;;;61.97;41.03;;;;;;;;;;5108390;28;20219;-74
2021/03/24 03:07:21;;;;;;;64.93;39.88;;;;;;;;;;5097944;28;20675;-74
2021/03/24 03:09:52;;;;;;;57.70;39.65;;;;;;;;;;5092946;28;20178;-74
2021/03/24 03:12:31;;;;;;;64.43;39.13;;;;;;;;;;5093431;28;20266;-73
2021/03/24 03:15:30;;;;;;;67.72;40.95;;;;;;;;;;5102906;28;20197;-73
2021/03/24 03:18:14;;;;;;;65.10;43.20;;;;;;;;;;5046885;28;20247;-73
2021/03/24 03:20:43;;;;;;;67.78;37.83;;;;;;;;;;5092779;28;20497;-71
2021/03/24 03:23:15;;;;;;;65.93;41.85;;;;;;;;;;5090546;28;20660;-75
2021/03/24 03:25:42;;;;;;;65.30;41.97;;;;;;;;;;5092554;28;20206;-72
2021/03/24 03:28:10;;;;;;;57.67;38.92;;;;;;;;;;5092669;28;20564;-73
2021/03/24 03:30:38;;;;;;;67.20;42.53;;;;;;;;;;5094024;28;20175;-75
2021/03/24 03:33:06;;;;;;;67.55;40.78;;;;;;;;;;5092293;28;20178;-73
2021/03/24 03:35:33;;;;;;;60.00;40.30;;;;;;;;;;5092715;28;20191;-73
2021/03/24 03:38:01;;;;;;;65.43;40.80;;;;;;;;;;5092850;28;20203;-74
2021/03/24 03:40:30;;;;;;;57.97;39.40;;;;;;;;;;5097244;28;20176;-73
2021/03/24 03:42:56;;;;;;;64.30;40.90;;;;;;;;;;5096752;28;20183;-74
2021/03/24 03:45:23;;;;;;;65.00;41.00;;;;;;;;;;5096800;28;20199;-74
2021/03/24 03:47:49;;;;;;;61.17;39.47;;;;;;;;;;5097225;28;20199;-73
2021/03/24 03:50:22;;;;;;;62.92;39.95;;;;;;;;;;5097304;28;20328;-72
2021/03/24 03:52:51;;;;;;;61.20;40.15;;;;;;;;;;5100724;28;20175;-73
2021/03/24 03:55:32;;;;;;;55.00;37.00;;;;;;;;;;5111305;28;20192;-74
2021/03/24 03:58:06;;;;;;;55.40;37.20;;;;;;;;;;5095947;28;20205;-75
2021/03/24 04:00:35;;;;;;;61.00;39.88;;;;;;;;;;5113915;28;20231;-73
2021/03/24 04:03:12;;;;;;;65.43;40.47;;;;;;;;;;5096010;28;20180;-72
2021/03/24 04:05:58;;;;;;;64.00;39.80;;;;;;;;;;5096261;28;20691;-74
2021/03/24 04:08:29;;;;;;;62.85;38.90;;;;;;;;;;5096269;28;20187;-72
2021/03/24 04:10:57;;;;;;;58.38;38.55;;;;;;;;;;5113274;28;20166;-73
2021/03/24 04:13:25;;;;;;;70.38;40.45;;;;;;;;;;5113635;28;20257;-73
2021/03/24 04:15:52;;;;;;;64.15;40.42;;;;;;;;;;5113959;28;20199;-73
2021/03/24 04:18:20;;;;;;;61.15;39.50;;;;;;;;;;5100655;28;20179;-76
2021/03/24 04:20:47;;;;;;;68.93;40.47;;;;;;;;;;5095961;28;20183;-73
2021/03/24 04:23:15;;;;;;;58.47;40.20;;;;;;;;;;5094492;28;20174;-73
2021/03/24 04:25:46;;;;;;;65.10;41.40;;;;;;;;;;5114297;28;20202;-73
2021/03/24 04:28:14;;;;;;;62.58;40.67;;;;;;;;;;5113566;27;20248;-71
2021/03/24 04:30:43;;;;;;;61.85;39.60;;;;;;;;;;5097719;28;20179;-73
2021/03/24 04:33:09;;;;;;;60.33;40.03;;;;;;;;;;5099167;28;20164;-74
2021/03/24 04:35:36;;;;;;;62.90;38.72;;;;;;;;;;5096131;28;20548;-73
2021/03/24 04:38:04;;;;;;;66.15;39.97;;;;;;;;;;5096410;28;20255;-73
2021/03/24 04:40:40;;;;;;;65.90;40.60;;;;;;;;;;5101323;28;20174;-72
2021/03/24 04:43:10;;;;;;;69.00;43.28;;;;;;;;;;5115908;27;20191;-75
2021/03/24 04:45:39;;;;;;;64.25;40.83;;;;;;;;;;5095554;28;20222;-74
2021/03/24 04:48:25;;;;;;;65.63;40.58;;;;;;;;;;5102583;28;20547;-72
2021/03/24 04:50:55;;;;;;;68.20;42.50;;;;;;;;;;5094128;28;20173;-74
2021/03/24 04:53:21;;;;;;;67.35;40.55;;;;;;;;;;5101746;28;20550;-76
2021/03/24 04:55:48;;;;;;;67.15;41.22;;;;;;;;;;5115961;28;20202;-75
2021/03/24 04:58:22;;;;;;;65.90;40.88;;;;;;;;;;5115982;28;20188;-72
2021/03/24 05:00:50;;;;;;;67.72;40.22;;;;;;;;;;5110824;28;20171;-74
2021/03/24 05:03:19;;;;;;;70.68;42.70;;;;;;;;;;5082159;28;20198;-73
2021/03/24 05:05:48;;;;;;;63.13;39.90;;;;;;;;;;5107522;28;20657;-72
2021/03/24 05:08:25;;;;;;;65.97;41.00;;;;;;;;;;5109305;28;20257;-72
2021/03/24 05:10:56;;;;;;;65.13;40.58;;;;;;;;;;5105927;28;20520;-74
2021/03/24 05:13:24;;;;;;;69.43;41.85;;;;;;;;;;5095088;28;20179;-75
2021/03/24 05:16:20;;;;;;;61.78;39.60;;;;;;;;;;5094944;28;20249;-75
2021/03/24 05:18:51;;;;;;;70.82;41.50;;;;;;;;;;5079565;28;20187;-74
2021/03/24 05:21:21;;;;;;;71.55;43.33;;;;;;;;;;5095261;28;20215;-74
2021/03/24 05:23:53;;;;;;;76.85;43.08;;;;;;;;;;5096907;28;20657;-75
2021/03/24 05:26:24;;;;;;;65.82;41.10;;;;;;;;;;5115377;28;20558;-74
2021/03/24 05:28:53;;;;;;;69.78;42.03;;;;;;;;;;5107077;28;20183;-72
2021/03/24 05:31:23;;;;;;;68.30;41.38;;;;;;;;;;5094799;28;20210;-74
2021/03/24 05:33:59;;;;;;;64.80;41.90;;;;;;;;;;5112734;28;20167;-73
2021/03/24 05:36:35;;;;;;;75.75;42.33;;;;;;;;;;5107522;28;20316;-76
2021/03/24 05:39:12;;;;;;;67.22;39.78;;;;;;;;;;5081955;28;20262;-73
2021/03/24 05:41:44;;;;;;;68.20;41.17;;;;;;;;;;5094546;28;20284;-74
2021/03/24 05:44:24;;;;;;;66.35;43.15;;;;;;;;;;5093252;28;20203;-74
2021/03/24 05:47:07;;;;;;;72.65;42.05;;;;;;;;;;5092803;28;20236;-74
2021/03/24 05:49:52;;;;;;;67.13;42.35;;;;;;;;;;5094459;28;20182;-74
2021/03/24 05:52:28;;;;;;;67.22;40.67;;;;;;;;;;5083589;28;20179;-73
2021/03/24 05:54:57;;;;;;;72.20;42.95;;;;;;;;;;5093847;28;20222;-73
2021/03/24 05:57:38;;;;;;;67.18;40.20;;;;;;;;;;5094750;28;20171;-73
2021/03/24 06:00:07;;;;;;;69.50;42.00;;;;;;;;;;5100473;28;20220;-73
2021/03/24 06:02:39;;;;;;;66.70;40.25;;;;;;;;;;5110063;28;20644;-74
2021/03/24 06:05:13;;;;;;;74.05;42.60;;;;;;;;;;5105347;28;20218;-76
2021/03/24 06:07:48;;;;;;;65.97;40.17;;;;;;;;;;5099180;28;20235;-73
2021/03/24 06:10:33;;;;;;;67.00;42.00;;;;;;;;;;5104273;28;20178;-71
2021/03/24 06:13:15;;;;;;;64.40;40.83;;;;;;;;;;5098517;27;20175;-73
2021/03/24 06:15:56;;;;;;;68.35;40.22;;;;;;;;;;5094104;28;20278;-73
2021/03/24 06:18:22;;;;;;;70.70;41.92;;;;;;;;;;5094295;28;20206;-73
2021/03/24 06:21:07;;;;;;;66.27;38.87;;;;;;;;;;5093575;28;20186;-75
2021/03/24 06:23:36;;;;;;;78.38;40.60;;;;;;;;;;5093122;28;20420;-75
2021/03/24 06:26:10;;;;;;;64.97;39.72;;;;;;;;;;5114358;28;20194;-73
2021/03/24 06:28:55;;;;;;;60.72;37.97;;;;;;;;;;5112787;28;20505;-73
2021/03/24 06:31:21;;;;;;;57.28;37.95;;;;;;;;;;5103309;28;20199;-75
2021/03/24 06:33:53;;;;;;;63.17;39.20;;;;;;;;;;5093547;28;20558;-76
2021/03/24 06:36:18;;;;;;;61.30;39.08;;;;;;;;;;5093428;28;20179;-76
2021/03/24 06:38:55;;;;;;;65.23;41.30;;;;;;;;;;5107731;28;20187;-74
2021/03/24 06:41:44;;;;;;;65.22;40.70;;;;;;;;;;5093932;28;20574;-76
2021/03/24 06:44:10;;;;;;;69.72;40.85;;;;;;;;;;5081464;28;20256;-75
2021/03/24 06:46:36;;;;;;;62.10;40.10;;;;;;;;;;5093219;28;20594;-76
2021/03/24 06:49:16;;;;;;;64.70;39.67;;;;;;;;;;5093589;28;20224;-75
2021/03/24 06:51:42;;;;;;;61.65;39.10;;;;;;;;;;5091953;28;20205;-75
2021/03/24 06:54:19;;;;;;;59.90;39.33;;;;;;;;;;5092698;28;20187;-75
2021/03/24 06:56:45;;;;;;;66.05;39.20;;;;;;;;;;5102821;28;20666;-75
2021/03/24 06:59:35;;;;;;;56.90;36.63;;;;;;;;;;5093657;28;20171;-72
2021/03/24 07:02:20;;;;;;;54.53;35.28;;;;;;;;;;5103368;28;20182;-75
2021/03/24 07:04:46;;;;;;;52.33;35.95;;;;;;;;;;5107355;28;20214;-76
2021/03/24 07:07:31;;;;;;;52.90;35.97;;;;;;;;;;5096110;28;20195;-74
2021/03/24 07:10:09;;;;;;;52.17;33.55;;;;;;;;;;5097384;28;20491;-73
2021/03/24 07:12:53;;;;;;;53.67;34.00;;;;;;;;;;5096780;28;20171;-76
2021/03/24 07:15:22;;;;;;;55.20;36.25;;;;;;;;;;5092929;28;20218;-76
2021/03/24 07:18:08;;;;;;;50.55;35.03;;;;;;;;;;5099514;28;20256;-75
2021/03/24 07:20:53;;;;;;;55.88;34.95;;;;;;;;;;5074569;28;20203;-74
2021/03/24 07:23:39;;;;;;;53.53;35.03;;;;;;;;;;5084911;28;20233;-74
2021/03/24 07:26:13;;;;;;;59.15;34.40;;;;;;;;;;5092758;28;20253;-73
2021/03/24 07:28:55;;;;;;;54.28;34.65;;;;;;;;;;5093536;28;20167;-74
2021/03/24 07:31:21;;;;;;;51.42;35.03;;;;;;;;;;5093054;28;20175;-76
2021/03/24 07:34:05;;;;;;;53.70;37.45;;;;;;;;;;5092845;28;20164;-73
2021/03/24 07:36:50;;;;;;;60.40;39.75;;;;;;;;;;5089066;28;20179;-76
2021/03/24 07:39:16;;;;;;;56.85;37.90;;;;;;;;;;5099710;28;20182;-74
2021/03/24 07:42:00;;;;;;;56.83;37.87;;;;;;;;;;5094668;28;20190;-75
2021/03/24 07:44:36;;;;;;;59.58;38.13;;;;;;;;;;5087410;28;20794;-74
2021/03/24 07:47:11;;;;;;;61.95;38.08;;;;;;;;;;5085921;28;20233;-73
2021/03/24 07:49:43;;;;;;;65.43;40.58;;;;;;;;;;5106122;28;20182;-73
2021/03/24 07:52:12;;;;;;;71.35;44.22;;;;;;;;;;5093253;28;20176;-74
2021/03/24 07:54:56;;;;;;;66.40;41.50;;;;;;;;;;5105079;28;20194;-75
2021/03/24 07:57:30;;;;;;;64.10;39.90;;;;;;;;;;5109749;28;20178;-73
2021/03/24 08:00:16;;;;;;;66.15;42.53;;;;;;;;;;5090273;28;20266;-75
2021/03/24 08:02:57;;;;;;;68.35;41.92;;;;;;;;;;5067261;28;20191;-74
2021/03/24 08:05:26;;;;;;;70.15;41.95;;;;;;;;;;5087712;28;20654;-75
2021/03/24 08:07:58;;;;;;;67.38;42.10;;;;;;;;;;5088788;28;20534;-73
2021/03/24 08:10:43;;;;;;;71.05;43.80;;;;;;;;;;5088936;28;20243;-73
2021/03/24 08:13:09;;;;;;;69.55;43.78;;;;;;;;;;5088859;28;20183;-74
2021/03/24 08:15:59;;;;;;;63.47;41.00;;;;;;;;;;5088753;28;20210;-74
2021/03/24 08:18:43;;;;;;;64.60;43.15;;;;;;;;;;5097749;28;20216;-74
2021/03/24 08:21:15;;;;;;;69.38;41.70;;;;;;;;;;5089084;28;20582;-73
2021/03/24 08:24:02;;;;;;;65.22;41.67;;;;;;;;;;5084018;28;20183;-73
2021/03/24 08:26:40;;;;;;;70.15;44.20;;;;;;;;;;5091270;28;20199;-73
2021/03/24 08:29:24;;;;;;;62.78;41.17;;;;;;;;;;5092981;28;20190;-74
2021/03/24 08:31:53;;;;;;;65.90;42.85;;;;;;;;;;5092778;28;20179;-73
2021/03/24 08:34:38;;;;;;;65.90;42.20;;;;;;;;;;5094657;28;20195;-75
2021/03/24 08:37:16;;;;;;;63.88;43.08;;;;;;;;;;5089511;28;20187;-74
2021/03/24 08:39:51;;;;;;;70.82;42.78;;;;;;;;;;5099346;28;20512;-76
2021/03/24 08:42:36;;;;;;;69.20;44.70;;;;;;;;;;5113115;28;20166;-73
2021/03/24 08:45:12;;;;;;;68.00;44.47;;;;;;;;;;5093225;28;20195;-75
2021/03/24 08:47:42;;;;;;;69.57;42.85;;;;;;;;;;5097243;28;20309;-75
2021/03/24 08:50:29;;;;;;;72.57;43.40;;;;;;;;;;5093217;28;20175;-73
2021/03/24 08:53:06;;;;;;;72.40;43.90;;;;;;;;;;5098553;28;20170;-73
2021/03/24 08:55:35;;;;;;;60.17;41.55;;;;;;;;;;5088491;28;20195;-75
2021/03/24 08:58:01;;;;;;;65.70;43.05;;;;;;;;;;5102371;28;20206;-75
2021/03/24 09:00:45;;;;;;;68.03;44.07;;;;;;;;;;5092389;28;20175;-75
2021/03/24 09:03:17;;;;;;;67.93;44.05;;;;;;;;;;5090356;28;20419;-75
2021/03/24 09:06:01;;;;;;;70.18;43.60;;;;;;;;;;5092247;28;20218;-75
2021/03/24 09:08:48;;;;;;;66.13;44.25;;;;;;;;;;5093097;28;20206;-75
2021/03/24 09:11:23;;;;;;;62.28;43.08;;;;;;;;;;5087127;28;20191;-74
2021/03/24 09:13:59;;;;;;;65.68;42.83;;;;;;;;;;5094463;28;20174;-73
2021/03/24 09:16:44;;;;;;;60.38;43.40;;;;;;;;;;5094021;28;20162;-74
2021/03/24 09:19:10;;;;;;;63.33;42.88;;;;;;;;;;5094306;28;20221;-75
2021/03/24 09:21:48;;;;;;;61.77;42.73;;;;;;;;;;5094248;28;20628;-72
2021/03/24 09:24:32;;;;;;;58.38;41.97;;;;;;;;;;5093417;28;20967;-76
2021/03/24 09:27:06;;;;;;;58.40;40.92;;;;;;;;;;5093760;28;20241;-72
2021/03/24 09:29:38;;;;;;;60.85;43.03;;;;;;;;;;5115347;28;20187;-73
2021/03/24 09:32:07;;;;;;;58.60;43.25;;;;;;;;;;5112847;28;20184;-72
2021/03/24 09:34:54;;;;;;;61.90;44.90;;;;;;;;;;5113353;28;20206;-72
2021/03/24 09:37:38;;;;;;;60.85;43.03;;;;;;;;;;5120540;28;20214;-74
2021/03/24 09:40:08;;;;;;;56.13;43.10;;;;;;;;;;5120488;28;20198;-73
2021/03/24 09:42:51;;;;;;;57.13;42.15;;;;;;;;;;5113379;28;20183;-72
2021/03/24 09:45:19;;;;;;;62.75;42.58;;;;;;;;;;5114181;28;20202;-75
2021/03/24 09:47:49;;;;;;;53.25;41.35;;;;;;;;;;5114316;28;20214;-73
2021/03/24 09:50:24;;;;;;;52.65;39.90;;;;;;;;;;5093746;28;20533;-75
2021/03/24 09:52:56;;;;;;;50.22;37.47;;;;;;;;;;5093662;28;20201;-73
2021/03/24 09:55:24;;;;;;;54.30;39.90;;;;;;;;;;5081577;28;20199;-73
2021/03/24 09:57:56;;;;;;;50.90;39.03;;;;;;;;;;5092114;28;20509;-72
2021/03/24 10:00:23;;;;;;;54.60;40.78;;;;;;;;;;5091741;28;20240;-76
2021/03/24 10:02:50;;;;;;;51.35;39.53;;;;;;;;;;5106603;28;20179;-72
2021/03/24 10:05:27;;;;;;;51.33;37.47;;;;;;;;;;5090910;28;20256;-75
2021/03/24 10:07:59;;;;;;;49.95;39.03;;;;;;;;;;5091032;28;20187;-74
2021/03/24 10:10:28;;;;;;;49.67;38.90;;;;;;;;;;5101098;28;20265;-74
2021/03/24 10:12:57;;;;;;;48.37;39.37;;;;;;;;;;5107148;28;20179;-77
2021/03/24 10:15:23;;;;;;;45.00;39.20;;;;;;;;;;5091216;28;20449;-75
2021/03/24 10:18:08;;;;;;;47.80;40.00;;;;;;;;;;5091613;28;20407;-73
2021/03/24 10:20:47;;;;;;;52.10;41.27;;;;;;;;;;5091164;28;21028;-73
2021/03/24 10:23:15;;;;;;;48.23;41.33;;;;;;;;;;5089945;28;20525;-73
2021/03/24 10:25:43;;;;;;;48.07;40.80;;;;;;;;;;5095837;28;20822;-73
2021/03/24 10:28:12;;;;;;;51.57;42.27;;;;;;;;;;5090573;28;20469;-75
2021/03/24 10:30:42;;;;;;;53.83;41.40;;;;;;;;;;5100700;28;20418;-73
2021/03/24 10:33:08;;;;;;;52.07;40.80;;;;;;;;;;5090145;28;20422;-72
2021/03/24 10:35:46;;;;;;;49.77;39.43;;;;;;;;;;5108618;28;20452;-74
2021/03/24 10:38:41;;;;;;;54.80;42.50;;;;;;;;;;5096423;28;20440;-72
2021/03/24 10:41:07;;;;;;;51.90;40.88;;;;;;;;;;5098818;28;20180;-75
2021/03/24 10:43:36;;;;;;;57.10;42.07;;;;;;;;;;5089531;28;20703;-73
2021/03/24 10:46:21;;;;;;;56.58;41.63;;;;;;;;;;5089958;28;20419;-72
2021/03/24 10:48:50;;;;;;;63.35;44.00;;;;;;;;;;5083305;28;20194;-74
2021/03/24 10:51:34;;;;;;;58.22;43.08;;;;;;;;;;5091552;28;20179;-75
2021/03/24 10:54:09;;;;;;;55.13;44.00;;;;;;;;;;5080801;28;20183;-74
2021/03/24 10:56:56;;;;;;;56.95;41.97;;;;;;;;;;5106677;28;20666;-75
2021/03/24 10:59:42;;;;;;;53.20;40.40;;;;;;;;;;5089667;28;20258;-75
2021/03/24 11:02:11;;;;;;;52.20;38.97;;;;;;;;;;5089781;28;20705;-76
2021/03/24 11:04:41;;;;;;;47.42;36.83;;;;;;;;;;5089353;28;20584;-72
2021/03/24 11:07:22;;;;;;;48.08;35.85;;;;;;;;;;5091782;28;20195;-74
2021/03/24 11:10:17;;;;;;;41.78;36.17;;;;;;;;;;5092091;28;20708;-76
2021/03/24 11:12:52;;;;;;;38.50;31.87;;;;;;;;;;5089210;28;20734;-72
2021/03/24 11:15:21;;;;;;;38.60;34.20;;;;;;;;;;5089848;28;20940;-74
2021/03/24 11:17:49;;;;;;;38.43;33.20;;;;;;;;;;5077391;28;20426;-74
2021/03/24 11:20:35;;;;;;;37.00;33.07;;;;;;;;;;5091432;28;20500;-75
2021/03/24 11:23:02;;;;;;;38.47;33.60;;;;;;;;;;5079583;28;20922;-76
2021/03/24 11:25:44;;;;;;;39.80;35.47;;;;;;;;;;5107436;28;20565;-75
2021/03/24 11:28:29;;;;;;;36.93;32.93;;;;;;;;;;5108717;28;20526;-75
2021/03/24 11:31:06;;;;;;;36.90;33.10;;;;;;;;;;5101170;28;20415;-75
2021/03/24 11:33:33;;;;;;;39.57;35.37;;;;;;;;;;5101648;28;20429;-77
2021/03/24 11:36:17;;;;;;;37.53;33.43;;;;;;;;;;5089213;28;20794;-76
2021/03/24 11:39:02;;;;;;;38.30;34.33;;;;;;;;;;5089186;28;20417;-73
2021/03/24 11:41:30;;;;;;;38.17;34.23;;;;;;;;;;5089496;28;20412;-75
2021/03/24 11:44:01;;;;;;;38.93;35.00;;;;;;;;;;5087285;28;20937;-74
2021/03/24 11:46:42;;;;;;;38.30;34.30;;;;;;;;;;5105399;28;20448;-74
2021/03/24 11:49:13;;;;;;;38.03;34.30;;;;;;;;;;5102884;28;20432;-74
2021/03/24 11:51:43;;;;;;;39.03;34.93;;;;;;;;;;5089202;28;20421;-75
2021/03/24 11:54:15;;;;;;;37.60;33.90;;;;;;;;;;5088895;28;20441;-73
2021/03/24 11:56:57;;;;;;;37.63;33.70;;;;;;;;;;5109410;28;20443;-75
2021/03/24 11:59:30;;;;;;;38.80;35.00;;;;;;;;;;5100200;28;20463;-76
2021/03/24 12:01:59;;;;;;;37.60;33.60;;;;;;;;;;5092306;28;20490;-74
2021/03/24 12:04:28;;;;;;;38.33;34.40;;;;;;;;;;5106849;28;20820;-75
2021/03/24 12:07:06;;;;;;;38.47;34.50;;;;;;;;;;5093206;28;20812;-76
2021/03/24 12:09:34;;;;;;;37.60;33.70;;;;;;;;;;5113309;28;20408;-75
2021/03/24 12:12:20;;;;;;;39.43;35.17;;;;;;;;;;5093325;28;20733;-73
2021/03/24 12:15:01;;;;;;;40.60;36.40;;;;;;;;;;5101002;28;20920;-72
2021/03/24 12:17:32;;;;;;;39.37;35.43;;;;;;;;;;5108937;28;20409;-73
2021/03/24 12:20:11;;;;;;;39.07;35.20;;;;;;;;;;5101935;28;20471;-74
2021/03/24 12:22:38;;;;;;;39.13;35.33;;;;;;;;;;5093037;28;20427;-75
2021/03/24 12:25:07;;;;;;;40.77;36.57;;;;;;;;;;5106205;28;20446;-74
2021/03/24 12:27:33;;;;;;;40.50;36.50;;;;;;;;;;5113834;28;20825;-75
2021/03/24 12:30:05;;;;;;;40.57;36.40;;;;;;;;;;5099994;28;20405;-75
2021/03/24 12:32:40;;;;;;;40.00;35.77;;;;;;;;;;5078537;28;20413;-76
2021/03/24 12:35:16;;;;;;;39.90;35.77;;;;;;;;;;5091489;28;20482;-76
2021/03/24 12:37:45;;;;;;;41.93;37.77;;;;;;;;;;5105130;28;20421;-74
2021/03/24 12:40:14;;;;;;;40.87;36.77;;;;;;;;;;5103771;28;20443;-75
2021/03/24 12:42:40;;;;;;;40.10;36.00;;;;;;;;;;5099831;28;20477;-74
2021/03/24 12:45:25;;;;;;;43.87;39.13;;;;;;;;;;5092055;28;20449;-74
2021/03/24 12:48:01;;;;;;;44.20;38.97;;;;;;;;;;5092698;28;20496;-76
2021/03/24 12:50:28;;;;;;;42.90;38.27;;;;;;;;;;5095017;28;20436;-72
2021/03/24 12:53:00;;;;;;;41.03;36.80;;;;;;;;;;5091725;28;20766;-75
2021/03/24 12:55:26;;;;;;;39.93;35.70;;;;;;;;;;5094243;28;20468;-76
2021/03/24 12:58:02;;;;;;;40.70;36.53;;;;;;;;;;5092332;28;20413;-77
2021/03/24 13:00:40;;;;;;;44.43;39.77;;;;;;;;;;5095896;28;20428;-76
2021/03/24 13:03:18;;;;;;;43.07;38.57;;;;;;;;;;5111941;28;20773;-76
2021/03/24 13:05:56;;;;;;;40.97;36.80;;;;;;;;;;5100973;28;20805;-73
2021/03/24 13:08:30;;;;;;;45.83;40.13;;;;;;;;;;5111169;28;20554;-76
2021/03/24 13:10:56;;;;;;;43.70;39.37;;;;;;;;;;5090660;28;20433;-76
2021/03/24 13:13:31;;;;;;;44.37;39.57;;;;;;;;;;5090984;28;20428;-71
2021/03/24 13:16:02;;;;;;;45.87;39.60;;;;;;;;;;5091531;28;20511;-74
2021/03/24 13:18:35;;;;;;;46.40;41.40;;;;;;;;;;5091385;28;20504;-75
2021/03/24 13:21:01;;;;;;;42.60;37.90;;;;;;;;;;5104282;28;20459;-77
2021/03/24 13:23:27;;;;;;;43.67;39.20;;;;;;;;;;5095515;28;20425;-73
2021/03/24 13:25:54;;;;;;;44.57;40.07;;;;;;;;;;5090595;28;20487;-72
2021/03/24 13:28:44;;;;;;;42.97;38.43;;;;;;;;;;5090984;28;20464;-72
2021/03/24 13:31:13;;;;;;;45.03;40.23;;;;;;;;;;5084299;28;20429;-77
2021/03/24 13:33:39;;;;;;;46.90;39.47;;;;;;;;;;5087840;28;20890;-74
2021/03/24 13:36:08;;;;;;;44.77;40.27;;;;;;;;;;5089416;28;20433;-76
2021/03/24 13:38:41;;;;;;;44.60;40.00;;;;;;;;;;5108896;28;20854;-74
2021/03/24 13:41:08;;;;;;;46.10;41.30;;;;;;;;;;5111538;28;20839;-72
2021/03/24 13:43:35;;;;;;;45.60;40.93;;;;;;;;;;5092368;28;20422;-73
2021/03/24 13:46:05;;;;;;;44.13;39.77;;;;;;;;;;5090760;28;20492;-75
2021/03/24 13:48:42;;;;;;;44.87;40.20;;;;;;;;;;5096528;28;20460;-73
2021/03/24 13:51:11;;;;;;;48.50;42.20;;;;;;;;;;5111115;28;20523;-76
2021/03/24 13:53:53;;;;;;;47.10;42.07;;;;;;;;;;5109539;28;20757;-73
2021/03/24 13:56:28;;;;;;;45.67;40.67;;;;;;;;;;5090766;28;20430;-73
2021/03/24 13:59:04;;;;;;;44.20;39.50;;;;;;;;;;5090830;28;20406;-75
2021/03/24 14:01:39;;;;;;;45.63;39.67;;;;;;;;;;5091021;28;20435;-75
2021/03/24 14:04:12;;;;;;;46.50;40.00;;;;;;;;;;5090037;28;20427;-74
2021/03/24 14:06:38;;;;;;;49.87;40.57;;;;;;;;;;5103790;28;20507;-75
2021/03/24 14:09:22;;;;;;;46.13;40.83;;;;;;;;;;5090399;28;20457;-73
2021/03/24 14:12:07;;;;;;;48.60;41.67;;;;;;;;;;5090301;28;20421;-75
2021/03/24 14:14:50;;;;;;;50.37;41.20;;;;;;;;;;5090000;28;20433;-73
2021/03/24 14:17:19;;;;;;;44.83;39.50;;;;;;;;;;5089959;28;20440;-74
2021/03/24 14:19:45;;;;;;;49.57;40.50;;;;;;;;;;5090488;28;20449;-73
2021/03/24 14:22:26;;;;;;;43.60;38.90;;;;;;;;;;5088681;28;20442;-75
2021/03/24 14:25:11;;;;;;;47.43;40.33;;;;;;;;;;5089134;28;20431;-75
2021/03/24 14:27:55;;;;;;;45.40;39.67;;;;;;;;;;5089879;28;20468;-73
2021/03/24 14:30:25;;;;;;;47.90;37.43;;;;;;;;;;5094337;28;20936;-76
2021/03/24 14:33:04;;;;;;;41.67;37.10;;;;;;;;;;5092550;28;20442;-74
2021/03/24 14:35:37;;;;;;;45.20;37.57;;;;;;;;;;5098201;28;20485;-74
2021/03/24 14:38:22;;;;;;;46.97;39.93;;;;;;;;;;5109692;28;20796;-74
2021/03/24 14:41:03;;;;;;;44.93;38.00;;;;;;;;;;5090699;28;20421;-76
2021/03/24 14:43:40;;;;;;;44.90;38.67;;;;;;;;;;5102603;28;20424;-75
2021/03/24 14:46:15;;;;;;;47.47;36.80;;;;;;;;;;5089342;28;20503;-74
2021/03/24 14:48:41;;;;;;;44.77;37.10;;;;;;;;;;5102332;28;20466;-75